sensor_id;sensor_type;location;lat;lon;timestamp;pressure;altitude;pressure_sealevel;temperature;humidity
6464;BME280;3265;42.694;23.282;2023-03-12T00:00:40;93774.06;;;2.99;87.01
6464;BME280;3265;42.694;23.282;2023-03-12T00:03:07;93791.00;;;3.00;86.18
6464;BME280;3265;42.694;23.282;2023-03-12T00:05:36;93780.97;;;2.99;86.85
6464;BME280;3265;42.694;23.282;2023-03-12T00:08:03;93781.34;;;2.96;86.81
6464;BME280;3265;42.694;23.282;2023-03-12T00:10:30;93781.94;;;2.91;86.86
6464;BME280;3265;42.694;23.282;2023-03-12T00:12:57;93789.38;;;2.86;87.21
6464;BME280;3265;42.694;23.282;2023-03-12T00:15:25;93787.84;;;2.85;87.11
6464;BME280;3265;42.694;23.282;2023-03-12T00:17:54;93797.09;;;2.86;86.62
6464;BME280;3265;42.694;23.282;2023-03-12T00:20:22;93798.06;;;2.78;86.65
6464;BME280;3265;42.694;23.282;2023-03-12T00:22:48;93790.78;;;2.82;86.49
6464;BME280;3265;42.694;23.282;2023-03-12T00:25:16;93801.03;;;2.82;87.16
6464;BME280;3265;42.694;23.282;2023-03-12T00:27:43;93814.66;;;2.82;86.58
6464;BME280;3265;42.694;23.282;2023-03-12T00:30:10;93818.00;;;2.83;86.38
6464;BME280;3265;42.694;23.282;2023-03-12T00:32:39;93808.91;;;2.80;87.25
6464;BME280;3265;42.694;23.282;2023-03-12T00:35:06;93795.47;;;2.72;87.24
6464;BME280;3265;42.694;23.282;2023-03-12T00:37:35;93808.31;;;2.78;86.26
6464;BME280;3265;42.694;23.282;2023-03-12T00:40:02;93808.69;;;2.75;86.53
6464;BME280;3265;42.694;23.282;2023-03-12T00:42:30;93820.34;;;2.78;87.11
6464;BME280;3265;42.694;23.282;2023-03-12T00:44:57;93822.09;;;2.71;87.33
6464;BME280;3265;42.694;23.282;2023-03-12T00:47:23;93807.69;;;2.70;88.02
6464;BME280;3265;42.694;23.282;2023-03-12T00:49:52;93806.09;;;2.62;87.26
6464;BME280;3265;42.694;23.282;2023-03-12T00:52:18;93832.28;;;2.58;88.15
6464;BME280;3265;42.694;23.282;2023-03-12T00:54:48;93810.97;;;2.57;87.76
6464;BME280;3265;42.694;23.282;2023-03-12T00:57:15;93815.88;;;2.52;88.36
6464;BME280;3265;42.694;23.282;2023-03-12T00:59:42;93812.88;;;2.42;89.12
6464;BME280;3265;42.694;23.282;2023-03-12T01:02:09;93813.44;;;2.38;88.99
6464;BME280;3265;42.694;23.282;2023-03-12T01:04:35;93809.16;;;2.45;88.50
6464;BME280;3265;42.694;23.282;2023-03-12T01:07:19;93820.00;;;2.47;88.73
6464;BME280;3265;42.694;23.282;2023-03-12T01:09:55;93832.81;;;2.47;88.07
6464;BME280;3265;42.694;23.282;2023-03-12T01:12:24;93803.97;;;2.38;88.42
6464;BME280;3265;42.694;23.282;2023-03-12T01:14:56;93830.25;;;2.47;88.50
6464;BME280;3265;42.694;23.282;2023-03-12T01:17:23;93833.78;;;2.46;88.34
6464;BME280;3265;42.694;23.282;2023-03-12T01:19:49;93833.78;;;2.46;88.00
6464;BME280;3265;42.694;23.282;2023-03-12T01:22:18;93843.00;;;2.34;88.54
6464;BME280;3265;42.694;23.282;2023-03-12T01:24:45;93838.91;;;2.46;88.04
6464;BME280;3265;42.694;23.282;2023-03-12T01:27:11;93839.53;;;2.48;88.04
6464;BME280;3265;42.694;23.282;2023-03-12T01:29:38;93831.84;;;2.48;88.55
6464;BME280;3265;42.694;23.282;2023-03-12T01:32:06;93834.16;;;2.43;88.38
6464;BME280;3265;42.694;23.282;2023-03-12T01:34:34;93841.63;;;2.38;88.75
6464;BME280;3265;42.694;23.282;2023-03-12T01:37:01;93829.94;;;2.28;88.21
6464;BME280;3265;42.694;23.282;2023-03-12T01:39:29;93841.25;;;2.41;88.36
6464;BME280;3265;42.694;23.282;2023-03-12T01:41:56;93834.53;;;2.40;88.28
6464;BME280;3265;42.694;23.282;2023-03-12T01:44:23;93839.50;;;2.41;88.56
6464;BME280;3265;42.694;23.282;2023-03-12T01:46:49;93849.91;;;2.40;88.52
6464;BME280;3265;42.694;23.282;2023-03-12T01:49:18;93823.16;;;2.42;89.02
6464;BME280;3265;42.694;23.282;2023-03-12T01:51:51;93825.66;;;2.36;89.12
6464;BME280;3265;42.694;23.282;2023-03-12T01:54:23;93825.84;;;2.34;89.18
6464;BME280;3265;42.694;23.282;2023-03-12T01:56:54;93830.19;;;2.34;89.21
6464;BME280;3265;42.694;23.282;2023-03-12T01:59:24;93834.69;;;2.32;89.23
6464;BME280;3265;42.694;23.282;2023-03-12T02:01:51;93817.38;;;2.34;88.39
6464;BME280;3265;42.694;23.282;2023-03-12T02:04:23;93830.31;;;2.25;89.14
6464;BME280;3265;42.694;23.282;2023-03-12T02:06:58;93848.91;;;2.34;88.83
6464;BME280;3265;42.694;23.282;2023-03-12T02:09:26;93831.72;;;2.28;88.20
6464;BME280;3265;42.694;23.282;2023-03-12T02:11:55;93850.53;;;2.42;88.58
6464;BME280;3265;42.694;23.282;2023-03-12T02:14:21;93852.69;;;2.38;87.91
6464;BME280;3265;42.694;23.282;2023-03-12T02:16:52;93845.31;;;2.22;88.44
6464;BME280;3265;42.694;23.282;2023-03-12T02:19:23;93813.66;;;2.08;89.06
6464;BME280;3265;42.694;23.282;2023-03-12T02:21:56;93852.88;;;2.37;88.89
6464;BME280;3265;42.694;23.282;2023-03-12T02:24:28;93849.75;;;2.41;88.70
6464;BME280;3265;42.694;23.282;2023-03-12T02:27:00;93850.91;;;2.39;88.22
6464;BME280;3265;42.694;23.282;2023-03-12T02:29:29;93854.69;;;2.43;88.37
6464;BME280;3265;42.694;23.282;2023-03-12T02:31:58;93852.91;;;2.43;88.03
6464;BME280;3265;42.694;23.282;2023-03-12T02:34:26;93858.88;;;2.22;88.35
6464;BME280;3265;42.694;23.282;2023-03-12T02:36:53;93865.09;;;2.07;89.52
6464;BME280;3265;42.694;23.282;2023-03-12T02:39:20;93844.19;;;1.82;90.37
6464;BME280;3265;42.694;23.282;2023-03-12T02:41:49;93869.34;;;2.00;90.71
6464;BME280;3265;42.694;23.282;2023-03-12T02:44:21;93859.31;;;1.98;90.68
6464;BME280;3265;42.694;23.282;2023-03-12T02:46:51;93869.84;;;2.10;90.90
6464;BME280;3265;42.694;23.282;2023-03-12T02:49:20;93875.28;;;2.00;91.40
6464;BME280;3265;42.694;23.282;2023-03-12T02:51:47;93878.63;;;2.01;91.59
6464;BME280;3265;42.694;23.282;2023-03-12T02:54:16;93882.13;;;1.93;91.89
6464;BME280;3265;42.694;23.282;2023-03-12T02:56:43;93890.06;;;1.98;92.10
6464;BME280;3265;42.694;23.282;2023-03-12T02:59:11;93893.34;;;2.13;91.26
6464;BME280;3265;42.694;23.282;2023-03-12T03:01:41;93865.22;;;1.99;90.91
6464;BME280;3265;42.694;23.282;2023-03-12T03:04:09;93903.06;;;2.24;91.56
6464;BME280;3265;42.694;23.282;2023-03-12T03:06:37;93894.38;;;2.25;91.33
6464;BME280;3265;42.694;23.282;2023-03-12T03:09:05;93892.09;;;2.31;91.13
6464;BME280;3265;42.694;23.282;2023-03-12T03:11:32;93892.63;;;2.26;90.74
6464;BME280;3265;42.694;23.282;2023-03-12T03:13:59;93890.47;;;2.29;90.86
6464;BME280;3265;42.694;23.282;2023-03-12T03:16:27;93889.88;;;2.27;91.02
6464;BME280;3265;42.694;23.282;2023-03-12T03:18:55;93886.31;;;2.28;91.17
6464;BME280;3265;42.694;23.282;2023-03-12T03:21:22;93895.41;;;2.31;90.51
6464;BME280;3265;42.694;23.282;2023-03-12T03:23:49;93900.75;;;2.29;90.26
6464;BME280;3265;42.694;23.282;2023-03-12T03:26:19;93904.28;;;2.28;89.59
6464;BME280;3265;42.694;23.282;2023-03-12T03:28:46;93898.84;;;2.17;89.98
6464;BME280;3265;42.694;23.282;2023-03-12T03:31:13;93885.28;;;2.16;89.48
6464;BME280;3265;42.694;23.282;2023-03-12T03:33:41;93885.00;;;2.05;89.47
6464;BME280;3265;42.694;23.282;2023-03-12T03:36:10;93901.38;;;2.10;88.95
6464;BME280;3265;42.694;23.282;2023-03-12T03:38:40;93888.47;;;1.97;88.86
6464;BME280;3265;42.694;23.282;2023-03-12T03:41:07;93908.66;;;2.07;88.77
6464;BME280;3265;42.694;23.282;2023-03-12T03:43:34;93905.28;;;2.06;88.50
6464;BME280;3265;42.694;23.282;2023-03-12T03:46:02;93911.16;;;2.00;88.35
6464;BME280;3265;42.694;23.282;2023-03-12T03:48:29;93921.53;;;1.92;89.00
6464;BME280;3265;42.694;23.282;2023-03-12T03:50:59;93912.88;;;1.93;89.21
6464;BME280;3265;42.694;23.282;2023-03-12T03:53:27;93902.19;;;1.90;89.21
6464;BME280;3265;42.694;23.282;2023-03-12T03:55:54;93918.22;;;1.98;88.80
6464;BME280;3265;42.694;23.282;2023-03-12T03:58:21;93922.75;;;1.96;88.88
6464;BME280;3265;42.694;23.282;2023-03-12T04:00:48;93928.16;;;1.87;88.09
6464;BME280;3265;42.694;23.282;2023-03-12T04:03:16;93934.25;;;1.86;88.63
6464;BME280;3265;42.694;23.282;2023-03-12T04:05:43;93935.66;;;1.88;88.09
6464;BME280;3265;42.694;23.282;2023-03-12T04:08:10;93924.22;;;1.84;88.39
6464;BME280;3265;42.694;23.282;2023-03-12T04:10:39;93944.50;;;1.86;87.83
6464;BME280;3265;42.694;23.282;2023-03-12T04:13:06;93936.38;;;1.82;87.20
6464;BME280;3265;42.694;23.282;2023-03-12T04:15:32;93946.22;;;1.79;86.61
6464;BME280;3265;42.694;23.282;2023-03-12T04:17:59;93944.50;;;1.64;86.62
6464;BME280;3265;42.694;23.282;2023-03-12T04:20:26;93943.72;;;1.64;84.93
6464;BME280;3265;42.694;23.282;2023-03-12T04:22:53;93957.31;;;1.64;85.17
6464;BME280;3265;42.694;23.282;2023-03-12T04:25:20;93931.75;;;1.50;84.92
6464;BME280;3265;42.694;23.282;2023-03-12T04:27:48;93964.78;;;1.66;84.92
6464;BME280;3265;42.694;23.282;2023-03-12T04:30:14;93964.09;;;1.57;84.50
6464;BME280;3265;42.694;23.282;2023-03-12T04:32:41;93966.84;;;1.56;84.68
6464;BME280;3265;42.694;23.282;2023-03-12T04:35:08;93967.22;;;1.53;84.48
6464;BME280;3265;42.694;23.282;2023-03-12T04:37:35;93959.47;;;1.32;85.21
6464;BME280;3265;42.694;23.282;2023-03-12T04:40:03;93964.69;;;1.38;84.96
6464;BME280;3265;42.694;23.282;2023-03-12T04:42:32;93968.38;;;1.36;84.78
6464;BME280;3265;42.694;23.282;2023-03-12T04:45:01;93974.13;;;1.38;85.24
6464;BME280;3265;42.694;23.282;2023-03-12T04:47:29;93978.59;;;1.36;84.97
6464;BME280;3265;42.694;23.282;2023-03-12T04:49:56;93978.19;;;1.32;85.06
6464;BME280;3265;42.694;23.282;2023-03-12T04:52:23;93989.84;;;1.35;85.28
6464;BME280;3265;42.694;23.282;2023-03-12T04:54:51;93988.69;;;1.23;84.74
6464;BME280;3265;42.694;23.282;2023-03-12T04:57:18;93999.81;;;1.30;85.53
6464;BME280;3265;42.694;23.282;2023-03-12T04:59:44;94003.44;;;1.35;85.59
6464;BME280;3265;42.694;23.282;2023-03-12T05:02:13;94011.53;;;1.39;85.64
6464;BME280;3265;42.694;23.282;2023-03-12T05:04:39;94013.66;;;1.35;85.27
6464;BME280;3265;42.694;23.282;2023-03-12T05:07:06;94009.88;;;1.31;85.50
6464;BME280;3265;42.694;23.282;2023-03-12T05:09:33;94016.59;;;1.32;85.89
6464;BME280;3265;42.694;23.282;2023-03-12T05:12:00;94028.38;;;1.33;85.98
6464;BME280;3265;42.694;23.282;2023-03-12T05:14:27;94024.88;;;1.34;86.06
6464;BME280;3265;42.694;23.282;2023-03-12T05:16:53;94028.47;;;1.40;86.08
6464;BME280;3265;42.694;23.282;2023-03-12T05:19:22;94032.00;;;1.39;86.00
6464;BME280;3265;42.694;23.282;2023-03-12T05:21:48;94032.63;;;1.41;86.02
6464;BME280;3265;42.694;23.282;2023-03-12T05:24:15;94022.13;;;1.36;86.37
6464;BME280;3265;42.694;23.282;2023-03-12T05:26:43;94033.09;;;1.44;86.31
6464;BME280;3265;42.694;23.282;2023-03-12T05:29:10;94029.97;;;1.49;86.21
6464;BME280;3265;42.694;23.282;2023-03-12T05:31:36;94027.50;;;1.41;86.33
6464;BME280;3265;42.694;23.282;2023-03-12T05:34:04;94044.63;;;1.55;86.12
6464;BME280;3265;42.694;23.282;2023-03-12T05:36:32;94044.44;;;1.42;85.58
6464;BME280;3265;42.694;23.282;2023-03-12T05:38:59;94050.44;;;1.34;85.82
6464;BME280;3265;42.694;23.282;2023-03-12T05:41:28;94041.72;;;1.29;86.59
6464;BME280;3265;42.694;23.282;2023-03-12T05:43:56;94056.97;;;1.22;86.36
6464;BME280;3265;42.694;23.282;2023-03-12T05:46:24;94061.66;;;1.19;87.31
6464;BME280;3265;42.694;23.282;2023-03-12T05:48:51;94066.41;;;1.22;87.35
6464;BME280;3265;42.694;23.282;2023-03-12T05:51:18;94055.56;;;1.20;87.56
6464;BME280;3265;42.694;23.282;2023-03-12T05:53:46;94073.84;;;1.31;87.24
6464;BME280;3265;42.694;23.282;2023-03-12T05:56:15;94074.28;;;1.35;86.41
6464;BME280;3265;42.694;23.282;2023-03-12T05:58:42;94068.28;;;1.42;85.21
6464;BME280;3265;42.694;23.282;2023-03-12T06:01:14;94068.72;;;1.46;85.23
6464;BME280;3265;42.694;23.282;2023-03-12T06:03:41;94087.16;;;1.56;84.23
6464;BME280;3265;42.694;23.282;2023-03-12T06:06:09;94086.78;;;1.73;83.45
6464;BME280;3265;42.694;23.282;2023-03-12T06:08:36;94100.66;;;1.79;82.51
6464;BME280;3265;42.694;23.282;2023-03-12T06:11:04;94095.88;;;1.76;80.86
6464;BME280;3265;42.694;23.282;2023-03-12T06:13:31;94087.78;;;1.73;81.70
6464;BME280;3265;42.694;23.282;2023-03-12T06:16:02;94090.84;;;1.68;82.92
6464;BME280;3265;42.694;23.282;2023-03-12T06:18:30;94089.44;;;1.65;82.95
6464;BME280;3265;42.694;23.282;2023-03-12T06:21:07;94062.53;;;1.40;82.89
6464;BME280;3265;42.694;23.282;2023-03-12T06:23:34;94101.63;;;1.78;82.10
6464;BME280;3265;42.694;23.282;2023-03-12T06:26:00;94109.84;;;1.73;82.10
6464;BME280;3265;42.694;23.282;2023-03-12T06:28:29;94090.59;;;1.63;82.09
6464;BME280;3265;42.694;23.282;2023-03-12T06:30:56;94120.00;;;1.82;82.13
6464;BME280;3265;42.694;23.282;2023-03-12T06:33:23;94139.34;;;1.99;82.20
6464;BME280;3265;42.694;23.282;2023-03-12T06:35:57;94119.38;;;1.94;81.78
6464;BME280;3265;42.694;23.282;2023-03-12T06:38:30;94138.69;;;2.11;82.08
6464;BME280;3265;42.694;23.282;2023-03-12T06:41:00;94147.19;;;2.12;81.92
6464;BME280;3265;42.694;23.282;2023-03-12T06:43:30;94128.53;;;2.03;82.27
6464;BME280;3265;42.694;23.282;2023-03-12T06:45:58;94127.75;;;2.03;81.60
6464;BME280;3265;42.694;23.282;2023-03-12T06:48:34;94138.56;;;2.19;80.64
6464;BME280;3265;42.694;23.282;2023-03-12T06:51:06;94131.56;;;2.07;80.25
6464;BME280;3265;42.694;23.282;2023-03-12T06:53:33;94163.50;;;2.25;79.63
6464;BME280;3265;42.694;23.282;2023-03-12T06:56:00;94163.09;;;2.07;78.84
6464;BME280;3265;42.694;23.282;2023-03-12T06:58:29;94175.28;;;2.05;79.40
6464;BME280;3265;42.694;23.282;2023-03-12T07:00:56;94170.34;;;2.04;78.81
6464;BME280;3265;42.694;23.282;2023-03-12T07:03:23;94181.53;;;2.17;78.90
6464;BME280;3265;42.694;23.282;2023-03-12T07:05:50;94183.59;;;2.22;77.38
6464;BME280;3265;42.694;23.282;2023-03-12T07:08:17;94178.63;;;2.20;75.81
6464;BME280;3265;42.694;23.282;2023-03-12T07:10:44;94185.88;;;2.17;75.72
6464;BME280;3265;42.694;23.282;2023-03-12T07:13:12;94176.06;;;2.20;75.24
6464;BME280;3265;42.694;23.282;2023-03-12T07:15:40;94191.00;;;2.17;75.75
6464;BME280;3265;42.694;23.282;2023-03-12T07:18:08;94189.50;;;2.08;75.31
6464;BME280;3265;42.694;23.282;2023-03-12T07:20:37;94192.06;;;2.08;75.67
6464;BME280;3265;42.694;23.282;2023-03-12T07:23:05;94188.78;;;1.99;76.36
6464;BME280;3265;42.694;23.282;2023-03-12T07:25:34;94214.06;;;2.17;77.00
6464;BME280;3265;42.694;23.282;2023-03-12T07:28:01;94207.97;;;2.33;75.90
6464;BME280;3265;42.694;23.282;2023-03-12T07:30:28;94209.63;;;2.25;75.88
6464;BME280;3265;42.694;23.282;2023-03-12T07:32:59;94212.19;;;2.25;76.13
6464;BME280;3265;42.694;23.282;2023-03-12T07:35:26;94216.00;;;2.44;75.51
6464;BME280;3265;42.694;23.282;2023-03-12T07:37:56;94225.28;;;2.45;74.90
6464;BME280;3265;42.694;23.282;2023-03-12T07:40:23;94215.63;;;2.47;75.32
6464;BME280;3265;42.694;23.282;2023-03-12T07:42:50;94212.00;;;2.56;74.16
6464;BME280;3265;42.694;23.282;2023-03-12T07:45:18;94211.72;;;2.51;74.85
6464;BME280;3265;42.694;23.282;2023-03-12T07:47:45;94240.53;;;2.68;75.03
6464;BME280;3265;42.694;23.282;2023-03-12T07:50:14;94255.22;;;2.74;73.24
6464;BME280;3265;42.694;23.282;2023-03-12T07:52:41;94231.97;;;2.61;72.48
6464;BME280;3265;42.694;23.282;2023-03-12T07:55:09;94224.25;;;2.61;73.54
6464;BME280;3265;42.694;23.282;2023-03-12T07:57:36;94225.16;;;2.68;73.62
6464;BME280;3265;42.694;23.282;2023-03-12T08:00:04;94225.84;;;2.62;74.54
6464;BME280;3265;42.694;23.282;2023-03-12T08:02:34;94218.06;;;2.70;73.73
6464;BME280;3265;42.694;23.282;2023-03-12T08:05:01;94232.56;;;2.63;73.07
6464;BME280;3265;42.694;23.282;2023-03-12T08:07:30;94234.69;;;2.74;72.52
6464;BME280;3265;42.694;23.282;2023-03-12T08:09:59;94217.88;;;2.71;71.85
6464;BME280;3265;42.694;23.282;2023-03-12T08:12:26;94226.47;;;2.64;71.72
6464;BME280;3265;42.694;23.282;2023-03-12T08:14:53;94231.06;;;2.68;71.97
6464;BME280;3265;42.694;23.282;2023-03-12T08:17:21;94253.41;;;2.74;73.04
6464;BME280;3265;42.694;23.282;2023-03-12T08:19:48;94260.38;;;2.80;72.68
6464;BME280;3265;42.694;23.282;2023-03-12T08:22:14;94245.00;;;2.80;73.53
6464;BME280;3265;42.694;23.282;2023-03-12T08:24:43;94244.13;;;2.88;72.76
6464;BME280;3265;42.694;23.282;2023-03-12T08:27:10;94241.34;;;2.90;72.25
6464;BME280;3265;42.694;23.282;2023-03-12T08:29:40;94254.53;;;2.86;71.46
6464;BME280;3265;42.694;23.282;2023-03-12T08:32:08;94248.72;;;2.78;71.85
6464;BME280;3265;42.694;23.282;2023-03-12T08:34:36;94281.78;;;3.02;70.13
6464;BME280;3265;42.694;23.282;2023-03-12T08:37:03;94255.69;;;3.20;68.17
6464;BME280;3265;42.694;23.282;2023-03-12T08:39:31;94255.06;;;3.18;69.17
6464;BME280;3265;42.694;23.282;2023-03-12T08:42:00;94277.31;;;3.32;67.92
6464;BME280;3265;42.694;23.282;2023-03-12T08:44:27;94283.09;;;3.34;67.72
6464;BME280;3265;42.694;23.282;2023-03-12T08:46:54;94275.06;;;3.43;67.13
6464;BME280;3265;42.694;23.282;2023-03-12T08:49:21;94267.34;;;3.43;67.62
6464;BME280;3265;42.694;23.282;2023-03-12T08:51:49;94280.59;;;3.40;67.85
6464;BME280;3265;42.694;23.282;2023-03-12T08:54:17;94234.34;;;3.19;67.64
6464;BME280;3265;42.694;23.282;2023-03-12T08:56:44;94286.19;;;3.51;68.81
6464;BME280;3265;42.694;23.282;2023-03-12T08:59:12;94291.63;;;3.62;67.58
6464;BME280;3265;42.694;23.282;2023-03-12T09:01:40;94289.38;;;3.74;67.03
6464;BME280;3265;42.694;23.282;2023-03-12T09:04:06;94289.84;;;3.84;68.38
6464;BME280;3265;42.694;23.282;2023-03-12T09:06:33;94267.72;;;3.83;68.81
6464;BME280;3265;42.694;23.282;2023-03-12T09:09:01;94296.41;;;4.14;69.16
6464;BME280;3265;42.694;23.282;2023-03-12T09:11:30;94288.38;;;4.30;68.86
6464;BME280;3265;42.694;23.282;2023-03-12T09:13:57;94290.19;;;4.64;68.13
6464;BME280;3265;42.694;23.282;2023-03-12T09:16:25;94277.75;;;4.74;66.59
6464;BME280;3265;42.694;23.282;2023-03-12T09:18:53;94277.00;;;4.46;67.31
6464;BME280;3265;42.694;23.282;2023-03-12T09:21:20;94282.28;;;4.72;67.04
6464;BME280;3265;42.694;23.282;2023-03-12T09:23:47;94284.13;;;4.85;66.29
6464;BME280;3265;42.694;23.282;2023-03-12T09:26:14;94265.22;;;5.12;65.49
6464;BME280;3265;42.694;23.282;2023-03-12T09:28:41;94283.91;;;5.34;63.33
6464;BME280;3265;42.694;23.282;2023-03-12T09:31:10;94278.56;;;5.55;62.92
6464;BME280;3265;42.694;23.282;2023-03-12T09:33:38;94279.00;;;5.78;63.17
6464;BME280;3265;42.694;23.282;2023-03-12T09:36:06;94281.03;;;6.02;62.49
6464;BME280;3265;42.694;23.282;2023-03-12T09:38:33;94270.88;;;5.68;63.13
6464;BME280;3265;42.694;23.282;2023-03-12T09:41:02;94269.06;;;5.75;64.47
6464;BME280;3265;42.694;23.282;2023-03-12T09:43:34;94276.25;;;5.93;64.82
6464;BME280;3265;42.694;23.282;2023-03-12T09:46:03;94285.13;;;6.49;64.65
6464;BME280;3265;42.694;23.282;2023-03-12T09:48:35;94283.09;;;6.71;62.38
6464;BME280;3265;42.694;23.282;2023-03-12T09:51:08;94275.97;;;7.17;61.39
6464;BME280;3265;42.694;23.282;2023-03-12T09:53:42;94279.03;;;7.70;61.89
6464;BME280;3265;42.694;23.282;2023-03-12T09:56:13;94274.34;;;7.54;58.39
6464;BME280;3265;42.694;23.282;2023-03-12T09:58:41;94277.34;;;7.51;58.80
6464;BME280;3265;42.694;23.282;2023-03-12T10:01:23;94287.56;;;7.71;58.96
6464;BME280;3265;42.694;23.282;2023-03-12T10:04:04;94284.81;;;7.66;57.93
6464;BME280;3265;42.694;23.282;2023-03-12T10:06:37;94276.69;;;8.18;56.19
6464;BME280;3265;42.694;23.282;2023-03-12T10:09:20;94289.28;;;8.57;55.49
6464;BME280;3265;42.694;23.282;2023-03-12T10:11:58;94286.50;;;8.77;54.11
6464;BME280;3265;42.694;23.282;2023-03-12T10:14:38;94277.78;;;8.90;53.79
6464;BME280;3265;42.694;23.282;2023-03-12T10:17:30;94277.22;;;8.88;50.15
6464;BME280;3265;42.694;23.282;2023-03-12T10:23:06;94284.03;;;8.64;48.74
6464;BME280;3265;42.694;23.282;2023-03-12T10:25:39;94289.00;;;8.84;50.53
6464;BME280;3265;42.694;23.282;2023-03-12T10:28:13;94284.31;;;8.56;49.59
6464;BME280;3265;42.694;23.282;2023-03-12T10:30:46;94292.47;;;8.35;49.31
6464;BME280;3265;42.694;23.282;2023-03-12T10:33:17;94278.16;;;8.57;48.88
6464;BME280;3265;42.694;23.282;2023-03-12T10:35:45;94281.91;;;8.79;48.75
6464;BME280;3265;42.694;23.282;2023-03-12T10:38:16;94291.69;;;8.77;50.97
6464;BME280;3265;42.694;23.282;2023-03-12T10:40:46;94284.47;;;9.16;49.00
6464;BME280;3265;42.694;23.282;2023-03-12T10:43:13;94286.50;;;9.73;46.67
6464;BME280;3265;42.694;23.282;2023-03-12T10:45:43;94280.34;;;9.97;46.25
6464;BME280;3265;42.694;23.282;2023-03-12T10:48:18;94280.78;;;10.47;46.23
6464;BME280;3265;42.694;23.282;2023-03-12T10:50:59;94291.56;;;11.02;45.46
6464;BME280;3265;42.694;23.282;2023-03-12T10:53:30;94293.28;;;11.76;43.75
6464;BME280;3265;42.694;23.282;2023-03-12T10:56:00;94294.22;;;11.87;41.12
6464;BME280;3265;42.694;23.282;2023-03-12T10:58:32;94299.03;;;11.95;42.70
6464;BME280;3265;42.694;23.282;2023-03-12T11:01:01;94286.03;;;11.95;41.35
6464;BME280;3265;42.694;23.282;2023-03-12T11:03:29;94277.69;;;12.43;41.80
6464;BME280;3265;42.694;23.282;2023-03-12T11:05:58;94276.34;;;12.79;37.56
6464;BME280;3265;42.694;23.282;2023-03-12T11:08:29;94278.53;;;12.65;35.20
6464;BME280;3265;42.694;23.282;2023-03-12T11:10:57;94277.91;;;12.58;35.40
6464;BME280;3265;42.694;23.282;2023-03-12T11:13:28;94289.00;;;12.87;35.29
6464;BME280;3265;42.694;23.282;2023-03-12T11:15:57;94287.81;;;12.06;35.77
6464;BME280;3265;42.694;23.282;2023-03-12T11:18:31;94267.34;;;12.31;35.67
6464;BME280;3265;42.694;23.282;2023-03-12T11:21:13;94269.78;;;12.05;36.30
6464;BME280;3265;42.694;23.282;2023-03-12T11:23:44;94270.69;;;12.65;37.57
6464;BME280;3265;42.694;23.282;2023-03-12T11:26:16;94285.63;;;13.08;34.43
6464;BME280;3265;42.694;23.282;2023-03-12T11:28:46;94280.56;;;13.18;33.79
6464;BME280;3265;42.694;23.282;2023-03-12T11:31:20;94271.56;;;13.31;34.85
6464;BME280;3265;42.694;23.282;2023-03-12T11:33:51;94268.53;;;12.79;34.22
6464;BME280;3265;42.694;23.282;2023-03-12T11:36:37;94264.91;;;12.25;35.92
6464;BME280;3265;42.694;23.282;2023-03-12T11:39:15;94275.50;;;11.73;37.45
6464;BME280;3265;42.694;23.282;2023-03-12T11:42:05;94266.72;;;11.63;37.89
6464;BME280;3265;42.694;23.282;2023-03-12T11:44:39;94268.31;;;12.09;36.98
6464;BME280;3265;42.694;23.282;2023-03-12T11:47:30;94265.13;;;12.07;34.85
6464;BME280;3265;42.694;23.282;2023-03-12T11:50:07;94261.16;;;11.71;35.97
6464;BME280;3265;42.694;23.282;2023-03-12T11:52:49;94265.56;;;11.70;36.53
6464;BME280;3265;42.694;23.282;2023-03-12T11:55:36;94255.72;;;11.04;37.53
6464;BME280;3265;42.694;23.282;2023-03-12T11:58:22;94236.63;;;10.47;38.06
6464;BME280;3265;42.694;23.282;2023-03-12T12:00:57;94252.50;;;10.51;39.71
6464;BME280;3265;42.694;23.282;2023-03-12T12:03:42;94252.84;;;10.43;39.60
6464;BME280;3265;42.694;23.282;2023-03-12T12:06:16;94252.16;;;10.01;40.18
6464;BME280;3265;42.694;23.282;2023-03-12T12:09:05;94246.00;;;9.72;41.54
6464;BME280;3265;42.694;23.282;2023-03-12T12:11:45;94250.16;;;9.73;42.29
6464;BME280;3265;42.694;23.282;2023-03-12T12:14:31;94248.16;;;9.75;41.96
6464;BME280;3265;42.694;23.282;2023-03-12T12:17:24;94264.88;;;10.02;40.77
6464;BME280;3265;42.694;23.282;2023-03-12T12:23:36;94227.66;;;11.34;37.17
6464;BME280;3265;42.694;23.282;2023-03-12T12:26:11;94262.75;;;11.88;37.04
6464;BME280;3265;42.694;23.282;2023-03-12T12:29:03;94258.88;;;12.24;36.49
6464;BME280;3265;42.694;23.282;2023-03-12T12:31:47;94230.56;;;12.28;35.70
6464;BME280;3265;42.694;23.282;2023-03-12T12:34:45;94254.53;;;11.80;36.02
6464;BME280;3265;42.694;23.282;2023-03-12T12:37:30;94267.91;;;11.44;37.40
6464;BME280;3265;42.694;23.282;2023-03-12T12:40:08;94262.09;;;11.53;37.06
6464;BME280;3265;42.694;23.282;2023-03-12T12:42:56;94256.53;;;11.33;37.45
6464;BME280;3265;42.694;23.282;2023-03-12T12:45:28;94262.06;;;11.36;37.70
6464;BME280;3265;42.694;23.282;2023-03-12T12:47:57;94270.88;;;11.92;36.96
6464;BME280;3265;42.694;23.282;2023-03-12T12:50:29;94270.31;;;11.90;36.07
6464;BME280;3265;42.694;23.282;2023-03-12T12:53:02;94260.75;;;11.79;35.95
6464;BME280;3265;42.694;23.282;2023-03-12T12:55:33;94261.44;;;11.18;37.13
6464;BME280;3265;42.694;23.282;2023-03-12T12:58:06;94265.69;;;10.96;37.46
6464;BME280;3265;42.694;23.282;2023-03-12T13:00:43;94255.69;;;10.64;38.45
6464;BME280;3265;42.694;23.282;2023-03-12T13:03:13;94258.94;;;10.13;40.80
6464;BME280;3265;42.694;23.282;2023-03-12T13:05:53;94251.16;;;10.60;40.75
6464;BME280;3265;42.694;23.282;2023-03-12T13:11:23;94247.19;;;10.11;39.68
6464;BME280;3265;42.694;23.282;2023-03-12T13:14:11;94253.09;;;10.41;39.58
6464;BME280;3265;42.694;23.282;2023-03-12T13:16:41;94262.59;;;10.36;40.05
6464;BME280;3265;42.694;23.282;2023-03-12T13:19:23;94252.75;;;10.26;39.76
6464;BME280;3265;42.694;23.282;2023-03-12T13:21:59;94249.56;;;10.82;39.67
6464;BME280;3265;42.694;23.282;2023-03-12T13:24:32;94269.50;;;11.73;38.15
6464;BME280;3265;42.694;23.282;2023-03-12T13:27:09;94276.78;;;12.71;35.18
6464;BME280;3265;42.694;23.282;2023-03-12T13:29:41;94276.59;;;13.59;34.25
6464;BME280;3265;42.694;23.282;2023-03-12T13:32:37;94287.13;;;13.96;32.98
6464;BME280;3265;42.694;23.282;2023-03-12T13:35:27;94272.63;;;13.83;33.35
6464;BME280;3265;42.694;23.282;2023-03-12T13:38:22;94270.69;;;12.65;33.51
6464;BME280;3265;42.694;23.282;2023-03-12T13:41:06;94286.03;;;11.95;36.64
6464;BME280;3265;42.694;23.282;2023-03-12T13:43:51;94271.00;;;11.29;36.38
6464;BME280;3265;42.694;23.282;2023-03-12T13:46:37;94284.03;;;10.31;38.31